sensor_id;sensor_type;location;lat;lon;timestamp;pressure;altitude;pressure_sealevel;temperature;humidity
60920;BME280;59039;52.108;19.942;2023-04-24T00:02:19;99742.08;;;13.46;65.25
60920;BME280;59039;52.108;19.942;2023-04-24T00:04:59;99741.02;;;13.41;65.39
60920;BME280;59039;52.108;19.942;2023-04-24T00:07:58;99742.51;;;13.36;65.26
60920;BME280;59039;52.108;19.942;2023-04-24T00:10:32;99738.21;;;13.33;66.07
60920;BME280;59039;52.108;19.942;2023-04-24T00:12:57;99735.20;;;13.28;65.25
60920;BME280;59039;52.108;19.942;2023-04-24T00:15:43;99732.27;;;13.26;63.84
60920;BME280;59039;52.108;19.942;2023-04-24T00:21:23;99728.90;;;13.24;64.90
60920;BME280;59039;52.108;19.942;2023-04-24T00:24:09;99723.35;;;13.22;65.08
60920;BME280;59039;52.108;19.942;2023-04-24T00:26:44;99721.55;;;13.20;65.57
60920;BME280;59039;52.108;19.942;2023-04-24T00:29:25;99717.80;;;13.19;63.52
60920;BME280;59039;52.108;19.942;2023-04-24T00:32:04;99716.29;;;13.16;63.39
60920;BME280;59039;52.108;19.942;2023-04-24T00:34:32;99712.02;;;13.13;63.21
60920;BME280;59039;52.108;19.942;2023-04-24T00:37:34;99709.42;;;13.11;63.17
60920;BME280;59039;52.108;19.942;2023-04-24T00:40:13;99705.63;;;13.06;62.82
60920;BME280;59039;52.108;19.942;2023-04-24T00:43:20;99702.49;;;12.99;62.58
60920;BME280;59039;52.108;19.942;2023-04-24T00:48:45;99702.98;;;12.86;65.27
60920;BME280;59039;52.108;19.942;2023-04-24T00:51:42;99706.60;;;12.84;66.26
60920;BME280;59039;52.108;19.942;2023-04-24T00:54:29;99702.53;;;12.81;65.22
60920;BME280;59039;52.108;19.942;2023-04-24T00:56:58;99702.96;;;12.79;64.49
60920;BME280;59039;52.108;19.942;2023-04-24T01:02:43;99704.65;;;12.77;64.28
60920;BME280;59039;52.108;19.942;2023-04-24T01:07:58;99703.55;;;12.74;64.77
60920;BME280;59039;52.108;19.942;2023-04-24T01:13:35;99702.05;;;12.68;64.29
60920;BME280;59039;52.108;19.942;2023-04-24T01:16:21;99701.02;;;12.65;64.34
60920;BME280;59039;52.108;19.942;2023-04-24T01:19:07;99702.24;;;12.62;64.65
60920;BME280;59039;52.108;19.942;2023-04-24T01:25:02;99692.64;;;12.48;64.04
60920;BME280;59039;52.108;19.942;2023-04-24T01:27:47;99689.48;;;12.40;64.51
60920;BME280;59039;52.108;19.942;2023-04-24T01:30:33;99690.96;;;12.34;64.92
60920;BME280;59039;52.108;19.942;2023-04-24T01:33:10;99689.23;;;12.30;65.47
60920;BME280;59039;52.108;19.942;2023-04-24T01:35:59;99687.88;;;12.29;66.14
60920;BME280;59039;52.108;19.942;2023-04-24T01:38:39;99687.01;;;12.27;66.16
60920;BME280;59039;52.108;19.942;2023-04-24T01:41:29;99680.73;;;12.25;65.23
60920;BME280;59039;52.108;19.942;2023-04-24T01:43:59;99683.95;;;12.23;65.87
60920;BME280;59039;52.108;19.942;2023-04-24T01:49:30;99683.73;;;12.21;66.49
60920;BME280;59039;52.108;19.942;2023-04-24T01:52:36;99681.64;;;12.19;66.44
60920;BME280;59039;52.108;19.942;2023-04-24T01:55:04;99679.92;;;12.16;65.68
60920;BME280;59039;52.108;19.942;2023-04-24T01:57:56;99678.96;;;12.13;65.62
60920;BME280;59039;52.108;19.942;2023-04-24T02:00:43;99678.48;;;12.09;66.38
60920;BME280;59039;52.108;19.942;2023-04-24T02:06:28;99667.73;;;12.00;65.36
60920;BME280;59039;52.108;19.942;2023-04-24T02:09:27;99671.45;;;11.95;66.47
60920;BME280;59039;52.108;19.942;2023-04-24T02:15:16;99665.23;;;11.87;67.13
60920;BME280;59039;52.108;19.942;2023-04-24T02:18:04;99658.91;;;11.84;67.03
60920;BME280;59039;52.108;19.942;2023-04-24T02:20:58;99657.09;;;11.81;65.46
60920;BME280;59039;52.108;19.942;2023-04-24T02:23:50;99654.13;;;11.72;65.48
60920;BME280;59039;52.108;19.942;2023-04-24T02:26:20;99654.21;;;11.64;66.23
60920;BME280;59039;52.108;19.942;2023-04-24T02:29:04;99650.49;;;11.60;66.72
60920;BME280;59039;52.108;19.942;2023-04-24T02:31:40;99647.94;;;11.57;67.47
60920;BME280;59039;52.108;19.942;2023-04-24T02:34:14;99645.88;;;11.55;67.27
60920;BME280;59039;52.108;19.942;2023-04-24T02:36:48;99647.83;;;11.52;68.70
60920;BME280;59039;52.108;19.942;2023-04-24T02:39:16;99641.65;;;11.48;68.85
60920;BME280;59039;52.108;19.942;2023-04-24T02:42:04;99636.68;;;11.44;69.68
60920;BME280;59039;52.108;19.942;2023-04-24T02:47:56;99633.64;;;11.38;70.20
60920;BME280;59039;52.108;19.942;2023-04-24T02:50:29;99633.06;;;11.37;69.06
60920;BME280;59039;52.108;19.942;2023-04-24T02:53:21;99630.78;;;11.36;68.96
60920;BME280;59039;52.108;19.942;2023-04-24T02:56:08;99628.64;;;11.36;68.14
60920;BME280;59039;52.108;19.942;2023-04-24T02:59:02;99630.92;;;11.33;68.07
60920;BME280;59039;52.108;19.942;2023-04-24T03:01:50;99628.48;;;11.29;67.00
60920;BME280;59039;52.108;19.942;2023-04-24T03:04:36;99626.95;;;11.24;67.37
60920;BME280;59039;52.108;19.942;2023-04-24T03:10:04;99629.29;;;11.12;68.08
60920;BME280;59039;52.108;19.942;2023-04-24T03:12:33;99631.61;;;11.09;67.85
60920;BME280;59039;52.108;19.942;2023-04-24T03:18:08;99634.85;;;11.05;68.76
60920;BME280;59039;52.108;19.942;2023-04-24T03:21:02;99631.73;;;11.04;68.70
60920;BME280;59039;52.108;19.942;2023-04-24T03:29:49;99631.30;;;10.92;68.03
60920;BME280;59039;52.108;19.942;2023-04-24T03:32:35;99628.02;;;10.83;68.85
60920;BME280;59039;52.108;19.942;2023-04-24T03:38:19;99634.35;;;10.77;69.33
60920;BME280;59039;52.108;19.942;2023-04-24T03:44:19;99624.88;;;10.79;69.07
60920;BME280;59039;52.108;19.942;2023-04-24T03:47:25;99626.10;;;10.78;68.58
60920;BME280;59039;52.108;19.942;2023-04-24T03:50:31;99625.35;;;10.76;68.71
60920;BME280;59039;52.108;19.942;2023-04-24T03:53:36;99624.91;;;10.77;68.46
60920;BME280;59039;52.108;19.942;2023-04-24T03:56:42;99623.53;;;10.76;68.70
60920;BME280;59039;52.108;19.942;2023-04-24T04:05:31;99626.10;;;10.79;69.53
60920;BME280;59039;52.108;19.942;2023-04-24T04:08:11;99626.11;;;10.84;68.70
60920;BME280;59039;52.108;19.942;2023-04-24T04:11:00;99626.23;;;10.88;68.59
60920;BME280;59039;52.108;19.942;2023-04-24T04:13:45;99628.27;;;10.91;68.74
60920;BME280;59039;52.108;19.942;2023-04-24T04:16:43;99627.61;;;10.95;68.64
60920;BME280;59039;52.108;19.942;2023-04-24T04:19:48;99628.39;;;10.99;68.87
60920;BME280;59039;52.108;19.942;2023-04-24T04:25:23;99626.93;;;11.06;68.78
60920;BME280;59039;52.108;19.942;2023-04-24T04:28:12;99623.58;;;11.11;68.78
60920;BME280;59039;52.108;19.942;2023-04-24T04:31:10;99619.88;;;11.16;68.79
60920;BME280;59039;52.108;19.942;2023-04-24T04:34:06;99620.91;;;11.21;68.66
60920;BME280;59039;52.108;19.942;2023-04-24T04:36:40;99618.05;;;11.25;68.31
60920;BME280;59039;52.108;19.942;2023-04-24T04:42:38;99620.08;;;11.35;68.26
60920;BME280;59039;52.108;19.942;2023-04-24T04:48:23;99622.14;;;11.46;67.98
60920;BME280;59039;52.108;19.942;2023-04-24T04:51:29;99619.19;;;11.52;67.66
60920;BME280;59039;52.108;19.942;2023-04-24T04:54:35;99617.55;;;11.56;67.72
60920;BME280;59039;52.108;19.942;2023-04-24T04:57:19;99619.69;;;11.61;67.40
60920;BME280;59039;52.108;19.942;2023-04-24T05:00:05;99620.77;;;11.64;67.27
60920;BME280;59039;52.108;19.942;2023-04-24T05:02:30;99616.77;;;11.69;67.01
60920;BME280;59039;52.108;19.942;2023-04-24T05:05:12;99613.60;;;11.71;66.96
60920;BME280;59039;52.108;19.942;2023-04-24T05:08:09;99615.91;;;11.72;67.28
60920;BME280;59039;52.108;19.942;2023-04-24T05:11:14;99616.88;;;11.76;67.04
60920;BME280;59039;52.108;19.942;2023-04-24T05:16:27;99618.80;;;11.89;67.04
60920;BME280;59039;52.108;19.942;2023-04-24T05:22:22;99621.58;;;12.02;66.86
60920;BME280;59039;52.108;19.942;2023-04-24T05:24:56;99620.07;;;12.08;66.45
60920;BME280;59039;52.108;19.942;2023-04-24T05:27:45;99621.19;;;12.11;66.24
60920;BME280;59039;52.108;19.942;2023-04-24T05:33:30;99618.41;;;12.17;66.04
60920;BME280;59039;52.108;19.942;2023-04-24T05:36:15;99616.29;;;12.19;66.13
60920;BME280;59039;52.108;19.942;2023-04-24T05:38:40;99617.77;;;12.25;66.10
60920;BME280;59039;52.108;19.942;2023-04-24T05:41:46;99613.95;;;12.37;66.28
60920;BME280;59039;52.108;19.942;2023-04-24T05:44:28;99617.83;;;12.57;66.51
60920;BME280;59039;52.108;19.942;2023-04-24T05:47:04;99620.29;;;12.74;66.61
60920;BME280;59039;52.108;19.942;2023-04-24T05:52:28;99609.86;;;13.23;66.51
60920;BME280;59039;52.108;19.942;2023-04-24T05:55:06;99610.39;;;13.54;66.30
60920;BME280;59039;52.108;19.942;2023-04-24T06:00:48;99607.14;;;14.07;65.35
60920;BME280;59039;52.108;19.942;2023-04-24T06:03:24;99606.58;;;14.31;65.25
60920;BME280;59039;52.108;19.942;2023-04-24T06:06:09;99606.61;;;14.47;64.78
60920;BME280;59039;52.108;19.942;2023-04-24T06:11:50;99604.83;;;14.66;64.02
60920;BME280;59039;52.108;19.942;2023-04-24T06:14:15;99605.67;;;14.69;63.67
60920;BME280;59039;52.108;19.942;2023-04-24T06:23:07;99609.91;;;14.84;63.15
60920;BME280;59039;52.108;19.942;2023-04-24T06:25:52;99607.01;;;14.88;62.63
60920;BME280;59039;52.108;19.942;2023-04-24T06:28:39;99608.70;;;14.93;62.68
60920;BME280;59039;52.108;19.942;2023-04-24T06:31:34;99607.39;;;14.99;62.39
60920;BME280;59039;52.108;19.942;2023-04-24T06:34:40;99604.13;;;15.03;62.26
60920;BME280;59039;52.108;19.942;2023-04-24T06:37:10;99598.39;;;15.12;62.59
60920;BME280;59039;52.108;19.942;2023-04-24T06:39:45;99594.50;;;15.15;62.16
60920;BME280;59039;52.108;19.942;2023-04-24T06:42:34;99591.98;;;15.18;62.12
60920;BME280;59039;52.108;19.942;2023-04-24T06:45:19;99593.45;;;15.21;61.92
60920;BME280;59039;52.108;19.942;2023-04-24T06:47:52;99592.29;;;15.24;62.00
60920;BME280;59039;52.108;19.942;2023-04-24T06:50:23;99595.43;;;15.30;61.97
60920;BME280;59039;52.108;19.942;2023-04-24T06:52:49;99597.39;;;15.35;61.95
60920;BME280;59039;52.108;19.942;2023-04-24T06:55:55;99595.90;;;15.48;61.95
60920;BME280;59039;52.108;19.942;2023-04-24T07:01:32;99598.96;;;15.67;61.94
60920;BME280;59039;52.108;19.942;2023-04-24T07:04:21;99597.48;;;15.74;61.60
60920;BME280;59039;52.108;19.942;2023-04-24T07:12:49;99594.36;;;15.93;61.45
60920;BME280;59039;52.108;19.942;2023-04-24T07:15:34;99588.67;;;15.99;61.49
60920;BME280;59039;52.108;19.942;2023-04-24T07:20:39;99587.48;;;16.14;62.33
60920;BME280;59039;52.108;19.942;2023-04-24T07:23:14;99580.73;;;16.22;61.86
60920;BME280;59039;52.108;19.942;2023-04-24T07:26:00;99585.79;;;16.32;61.67
60920;BME280;59039;52.108;19.942;2023-04-24T07:31:04;99584.23;;;16.45;61.21
60920;BME280;59039;52.108;19.942;2023-04-24T07:33:30;99583.47;;;16.52;61.13
60920;BME280;59039;52.108;19.942;2023-04-24T07:35:55;99580.19;;;16.66;60.78
60920;BME280;59039;52.108;19.942;2023-04-24T07:39:23;99578.92;;;16.87;61.17
60920;BME280;59039;52.108;19.942;2023-04-24T07:41:35;99579.08;;;17.04;60.98
60920;BME280;59039;52.108;19.942;2023-04-24T07:44:20;99575.27;;;17.21;60.52
60920;BME280;59039;52.108;19.942;2023-04-24T07:47:09;99567.96;;;17.38;60.60
60920;BME280;59039;52.108;19.942;2023-04-24T07:49:40;99565.33;;;17.56;60.63
60920;BME280;59039;52.108;19.942;2023-04-24T07:52:27;99565.70;;;17.75;60.36
60920;BME280;59039;52.108;19.942;2023-04-24T07:54:57;99562.13;;;17.97;59.95
60920;BME280;59039;52.108;19.942;2023-04-24T07:57:25;99560.33;;;18.16;59.50
60920;BME280;59039;52.108;19.942;2023-04-24T08:00:14;99560.67;;;18.32;59.31
60920;BME280;59039;52.108;19.942;2023-04-24T08:02:39;99558.70;;;18.43;58.55
60920;BME280;59039;52.108;19.942;2023-04-24T08:05:09;99553.62;;;18.51;57.70
60920;BME280;59039;52.108;19.942;2023-04-24T08:07:46;99551.82;;;18.59;57.45
60920;BME280;59039;52.108;19.942;2023-04-24T08:10:38;99551.93;;;18.63;56.74
60920;BME280;59039;52.108;19.942;2023-04-24T08:13:05;99550.30;;;18.65;55.77
60920;BME280;59039;52.108;19.942;2023-04-24T08:15:50;99546.25;;;18.68;55.18
60920;BME280;59039;52.108;19.942;2023-04-24T08:18:26;99549.63;;;18.72;55.17
60920;BME280;59039;52.108;19.942;2023-04-24T08:21:04;99549.30;;;18.77;54.95
60920;BME280;59039;52.108;19.942;2023-04-24T08:23:47;99551.27;;;18.84;54.46
60920;BME280;59039;52.108;19.942;2023-04-24T08:26:37;99551.41;;;18.92;54.80
60920;BME280;59039;52.108;19.942;2023-04-24T08:29:05;99556.00;;;19.01;54.82
60920;BME280;59039;52.108;19.942;2023-04-24T08:31:33;99554.29;;;19.10;54.02
60920;BME280;59039;52.108;19.942;2023-04-24T08:34:08;99551.84;;;19.15;53.65
60920;BME280;59039;52.108;19.942;2023-04-24T08:36:54;99552.02;;;19.21;53.28
60920;BME280;59039;52.108;19.942;2023-04-24T08:39:23;99548.05;;;19.25;52.76
60920;BME280;59039;52.108;19.942;2023-04-24T08:41:48;99548.75;;;19.36;52.51
60920;BME280;59039;52.108;19.942;2023-04-24T08:44:30;99546.06;;;19.49;51.46
60920;BME280;59039;52.108;19.942;2023-04-24T08:47:18;99547.23;;;19.68;51.54
60920;BME280;59039;52.108;19.942;2023-04-24T08:50:03;99542.59;;;19.84;49.58
60920;BME280;59039;52.108;19.942;2023-04-24T08:52:53;99540.21;;;19.97;48.90
60920;BME280;59039;52.108;19.942;2023-04-24T08:55:20;99541.40;;;20.02;48.28
60920;BME280;59039;52.108;19.942;2023-04-24T08:58:02;99536.45;;;20.08;48.65
60920;BME280;59039;52.108;19.942;2023-04-24T09:00:31;99537.42;;;20.14;48.33
60920;BME280;59039;52.108;19.942;2023-04-24T09:03:08;99538.02;;;20.21;47.68
60920;BME280;59039;52.108;19.942;2023-04-24T09:05:46;99539.11;;;20.27;47.30
60920;BME280;59039;52.108;19.942;2023-04-24T09:08:25;99541.02;;;20.34;47.47
60920;BME280;59039;52.108;19.942;2023-04-24T09:11:14;99536.77;;;20.38;47.31
60920;BME280;59039;52.108;19.942;2023-04-24T09:14:19;99539.23;;;20.44;47.15
60920;BME280;59039;52.108;19.942;2023-04-24T09:17:07;99539.64;;;20.53;45.24
60920;BME280;59039;52.108;19.942;2023-04-24T09:19:36;99535.58;;;20.60;44.16
60920;BME280;59039;52.108;19.942;2023-04-24T09:22:25;99533.88;;;20.65;44.56
60920;BME280;59039;52.108;19.942;2023-04-24T09:25:31;99531.60;;;20.73;44.88
60920;BME280;59039;52.108;19.942;2023-04-24T09:30:42;99528.98;;;20.93;42.19
60920;BME280;59039;52.108;19.942;2023-04-24T09:33:34;99528.91;;;21.02;41.28
60920;BME280;59039;52.108;19.942;2023-04-24T09:36:02;99522.61;;;21.11;40.51
60920;BME280;59039;52.108;19.942;2023-04-24T09:38:48;99524.80;;;21.17;40.42
60920;BME280;59039;52.108;19.942;2023-04-24T09:41:22;99519.77;;;21.23;40.45
60920;BME280;59039;52.108;19.942;2023-04-24T09:46:36;99516.24;;;21.33;40.66
60920;BME280;59039;52.108;19.942;2023-04-24T09:49:30;99515.44;;;21.39;39.72
60920;BME280;59039;52.108;19.942;2023-04-24T09:54:40;99503.52;;;21.48;40.47
60920;BME280;59039;52.108;19.942;2023-04-24T09:57:08;99506.79;;;21.55;40.00
60920;BME280;59039;52.108;19.942;2023-04-24T09:59:34;99500.39;;;21.59;39.27
60920;BME280;59039;52.108;19.942;2023-04-24T10:02:22;99495.33;;;21.61;39.49
60920;BME280;59039;52.108;19.942;2023-04-24T10:04:57;99491.74;;;21.61;38.09
60920;BME280;59039;52.108;19.942;2023-04-24T10:07:28;99488.92;;;21.62;38.61
60920;BME280;59039;52.108;19.942;2023-04-24T10:10:36;99488.25;;;21.64;38.80
60920;BME280;59039;52.108;19.942;2023-04-24T10:13:02;99485.80;;;21.66;38.43
60920;BME280;59039;52.108;19.942;2023-04-24T10:15:30;99486.54;;;21.67;38.32
60920;BME280;59039;52.108;19.942;2023-04-24T10:17:58;99487.82;;;21.71;38.57
60920;BME280;59039;52.108;19.942;2023-04-24T10:20:26;99486.02;;;21.76;38.97
60920;BME280;59039;52.108;19.942;2023-04-24T10:22:53;99481.66;;;21.84;38.88
60920;BME280;59039;52.108;19.942;2023-04-24T10:25:36;99479.23;;;21.91;38.27
60920;BME280;59039;52.108;19.942;2023-04-24T10:28:14;99476.73;;;21.98;37.63
60920;BME280;59039;52.108;19.942;2023-04-24T10:30:45;99473.45;;;22.07;38.47
60920;BME280;59039;52.108;19.942;2023-04-24T10:41:46;99462.91;;;22.26;36.66
60920;BME280;59039;52.108;19.942;2023-04-24T10:44:22;99458.95;;;22.28;37.13
60920;BME280;59039;52.108;19.942;2023-04-24T10:47:21;99460.68;;;22.29;36.47
60920;BME280;59039;52.108;19.942;2023-04-24T10:49:52;99452.68;;;22.31;36.51
60920;BME280;59039;52.108;19.942;2023-04-24T10:52:18;99451.15;;;22.32;36.93
60920;BME280;59039;52.108;19.942;2023-04-24T10:55:08;99449.03;;;22.35;36.82
60920;BME280;59039;52.108;19.942;2023-04-24T10:57:35;99447.96;;;22.38;35.94
60920;BME280;59039;52.108;19.942;2023-04-24T11:00:13;99442.17;;;22.40;35.81
60920;BME280;59039;52.108;19.942;2023-04-24T11:02:42;99438.83;;;22.42;35.24
60920;BME280;59039;52.108;19.942;2023-04-24T11:05:17;99432.89;;;22.41;34.29
60920;BME280;59039;52.108;19.942;2023-04-24T11:12:02;99435.88;;;22.44;34.78
60920;BME280;59039;52.108;19.942;2023-04-24T11:14:29;99433.19;;;22.47;35.50
60920;BME280;59039;52.108;19.942;2023-04-24T11:16:54;99430.35;;;22.51;35.37
60920;BME280;59039;52.108;19.942;2023-04-24T11:19:26;99427.58;;;22.55;35.39
60920;BME280;59039;52.108;19.942;2023-04-24T11:24:59;99428.14;;;22.64;34.66
60920;BME280;59039;52.108;19.942;2023-04-24T11:28:14;99422.77;;;22.68;34.90
60920;BME280;59039;52.108;19.942;2023-04-24T11:30:18;99421.86;;;22.71;34.40
60920;BME280;59039;52.108;19.942;2023-04-24T11:33:03;99423.26;;;22.73;34.46
60920;BME280;59039;52.108;19.942;2023-04-24T11:35:37;99426.48;;;22.75;34.00
60920;BME280;59039;52.108;19.942;2023-04-24T11:38:14;99420.80;;;22.76;33.64
60920;BME280;59039;52.108;19.942;2023-04-24T11:41:00;99421.02;;;22.77;33.77
60920;BME280;59039;52.108;19.942;2023-04-24T11:46:00;99418.63;;;22.80;34.10
60920;BME280;59039;52.108;19.942;2023-04-24T11:48:37;99418.92;;;22.81;33.83
60920;BME280;59039;52.108;19.942;2023-04-24T11:51:06;99422.83;;;22.79;33.91
60920;BME280;59039;52.108;19.942;2023-04-24T11:53:37;99420.48;;;22.79;34.25
60920;BME280;59039;52.108;19.942;2023-04-24T11:56:03;99420.34;;;22.79;34.01
60920;BME280;59039;52.108;19.942;2023-04-24T11:58:52;99414.52;;;22.79;33.65
60920;BME280;59039;52.108;19.942;2023-04-24T12:01:18;99408.16;;;22.82;33.91
60920;BME280;59039;52.108;19.942;2023-04-24T12:04:02;99404.87;;;22.84;33.59
60920;BME280;59039;52.108;19.942;2023-04-24T12:06:40;99396.03;;;22.86;33.39
60920;BME280;59039;52.108;19.942;2023-04-24T12:09:08;99395.38;;;22.87;33.18
60920;BME280;59039;52.108;19.942;2023-04-24T12:11:36;99395.67;;;22.90;33.33
60920;BME280;59039;52.108;19.942;2023-04-24T12:14:26;99398.41;;;22.92;33.33
60920;BME280;59039;52.108;19.942;2023-04-24T12:16:54;99393.34;;;22.94;33.01
60920;BME280;59039;52.108;19.942;2023-04-24T12:19:23;99391.86;;;22.95;33.48
60920;BME280;59039;52.108;19.942;2023-04-24T12:22:11;99393.31;;;22.96;33.35
60920;BME280;59039;52.108;19.942;2023-04-24T12:24:55;99394.43;;;22.98;33.19
60920;BME280;59039;52.108;19.942;2023-04-24T12:27:34;99393.56;;;22.98;33.60
60920;BME280;59039;52.108;19.942;2023-04-24T12:30:15;99390.52;;;22.99;33.23
60920;BME280;59039;52.108;19.942;2023-04-24T12:32:47;99406.86;;;23.01;32.88
60920;BME280;59039;52.108;19.942;2023-04-24T12:35:14;99419.21;;;22.92;33.62
60920;BME280;59039;52.108;19.942;2023-04-24T12:37:52;99419.70;;;22.71;34.56
60920;BME280;59039;52.108;19.942;2023-04-24T12:41:24;99422.60;;;22.51;35.42
60920;BME280;59039;52.108;19.942;2023-04-24T12:43:26;99428.25;;;22.27;36.19
60920;BME280;59039;52.108;19.942;2023-04-24T12:46:13;99434.53;;;22.07;36.49
60920;BME280;59039;52.108;19.942;2023-04-24T12:49:01;99438.30;;;21.78;37.15
60920;BME280;59039;52.108;19.942;2023-04-24T12:51:32;99438.29;;;21.56;37.69
60920;BME280;59039;52.108;19.942;2023-04-24T12:54:00;99437.06;;;21.37;37.97
60920;BME280;59039;52.108;19.942;2023-04-24T12:57:07;99441.55;;;21.20;38.27
60920;BME280;59039;52.108;19.942;2023-04-24T13:02:36;99431.07;;;20.83;39.13
60920;BME280;59039;52.108;19.942;2023-04-24T13:05:12;99429.45;;;20.70;39.40
60920;BME280;59039;52.108;19.942;2023-04-24T13:07:42;99423.73;;;20.61;39.76
60920;BME280;59039;52.108;19.942;2023-04-24T13:10:07;99423.33;;;20.48;39.83
60920;BME280;59039;52.108;19.942;2023-04-24T13:12:36;99417.14;;;20.39;40.02
60920;BME280;59039;52.108;19.942;2023-04-24T13:15:05;99412.13;;;20.27;40.09
60920;BME280;59039;52.108;19.942;2023-04-24T13:17:41;99406.39;;;20.17;40.42
60920;BME280;59039;52.108;19.942;2023-04-24T13:20:10;99402.05;;;20.08;40.63
60920;BME280;59039;52.108;19.942;2023-04-24T13:25:35;99392.83;;;19.92;40.78
60920;BME280;59039;52.108;19.942;2023-04-24T13:28:10;99388.03;;;19.83;40.94
60920;BME280;59039;52.108;19.942;2023-04-24T13:30:38;99381.64;;;19.76;41.01
60920;BME280;59039;52.108;19.942;2023-04-24T13:33:27;99375.19;;;19.71;41.03
60920;BME280;59039;52.108;19.942;2023-04-24T13:38:45;99367.20;;;19.63;41.28
60920;BME280;59039;52.108;19.942;2023-04-24T13:41:27;99366.36;;;19.60;41.47
60920;BME280;59039;52.108;19.942;2023-04-24T13:43:52;99362.79;;;19.58;41.44
60920;BME280;59039;52.108;19.942;2023-04-24T13:46:19;99357.63;;;19.57;41.51
60920;BME280;59039;52.108;19.942;2023-04-24T13:48:57;99354.60;;;19.57;41.27
60920;BME280;59039;52.108;19.942;2023-04-24T13:54:11;99344.05;;;19.58;40.82
60920;BME280;59039;52.108;19.942;2023-04-24T13:56:38;99337.09;;;19.59;40.56
60920;BME280;59039;52.108;19.942;2023-04-24T13:59:10;99335.45;;;19.63;40.29
60920;BME280;59039;52.108;19.942;2023-04-24T14:01:45;99331.48;;;19.64;40.11
60920;BME280;59039;52.108;19.942;2023-04-24T14:04:31;99331.48;;;19.66;39.87
60920;BME280;59039;52.108;19.942;2023-04-24T14:07:06;99327.63;;;19.70;39.48
60920;BME280;59039;52.108;19.942;2023-04-24T14:12:48;99329.91;;;19.75;39.90
60920;BME280;59039;52.108;19.942;2023-04-24T14:15:22;99332.20;;;19.81;39.48
60920;BME280;59039;52.108;19.942;2023-04-24T14:18:11;99325.63;;;19.88;39.25
60920;BME280;59039;52.108;19.942;2023-04-24T14:20:36;99318.35;;;19.96;39.25
60920;BME280;59039;52.108;19.942;2023-04-24T14:23:02;99318.11;;;20.03;38.72
60920;BME280;59039;52.108;19.942;2023-04-24T14:25:29;99312.31;;;20.09;38.25
60920;BME280;59039;52.108;19.942;2023-04-24T14:28:18;99311.94;;;20.12;37.50
60920;BME280;59039;52.108;19.942;2023-04-24T14:30:50;99305.93;;;20.17;37.27
60920;BME280;59039;52.108;19.942;2023-04-24T14:33:24;99298.88;;;20.21;36.67
60920;BME280;59039;52.108;19.942;2023-04-24T14:35:50;99295.91;;;20.23;36.56
60920;BME280;59039;52.108;19.942;2023-04-24T14:41:19;99292.97;;;20.32;35.71
60920;BME280;59039;52.108;19.942;2023-04-24T14:43:47;99289.90;;;20.36;35.64
60920;BME280;59039;52.108;19.942;2023-04-24T14:46:15;99282.91;;;20.39;35.73
60920;BME280;59039;52.108;19.942;2023-04-24T14:49:11;99285.98;;;20.44;35.40
60920;BME280;59039;52.108;19.942;2023-04-24T14:51:42;99281.29;;;20.47;35.21
60920;BME280;59039;52.108;19.942;2023-04-24T14:54:12;99273.20;;;20.49;35.25
60920;BME280;59039;52.108;19.942;2023-04-24T14:59:18;99269.33;;;20.56;35.78
60920;BME280;59039;52.108;19.942;2023-04-24T15:01:44;99265.70;;;20.59;35.73
60920;BME280;59039;52.108;19.942;2023-04-24T15:04:12;99262.34;;;20.63;35.88
60920;BME280;59039;52.108;19.942;2023-04-24T15:06:49;99259.39;;;20.65;35.43
60920;BME280;59039;52.108;19.942;2023-04-24T15:09:20;99252.91;;;20.67;35.24
60920;BME280;59039;52.108;19.942;2023-04-24T15:12:09;99250.80;;;20.66;35.46
60920;BME280;59039;52.108;19.942;2023-04-24T15:18:16;99244.88;;;20.69;35.46
60920;BME280;59039;52.108;19.942;2023-04-24T15:21:09;99240.55;;;20.71;35.25
60920;BME280;59039;52.108;19.942;2023-04-24T15:24:08;99237.35;;;20.71;35.58
60920;BME280;59039;52.108;19.942;2023-04-24T15:26:41;99236.10;;;20.73;35.47
60920;BME280;59039;52.108;19.942;2023-04-24T15:29:16;99230.63;;;20.71;35.68
60920;BME280;59039;52.108;19.942;2023-04-24T15:31:49;99228.23;;;20.71;36.00
60920;BME280;59039;52.108;19.942;2023-04-24T15:34:26;99226.05;;;20.72;36.10
60920;BME280;59039;52.108;19.942;2023-04-24T15:36:54;99223.02;;;20.73;36.01
60920;BME280;59039;52.108;19.942;2023-04-24T15:39:23;99225.09;;;20.74;36.11
60920;BME280;59039;52.108;19.942;2023-04-24T15:41:51;99221.89;;;20.74;36.21
60920;BME280;59039;52.108;19.942;2023-04-24T15:44:37;99217.69;;;20.74;36.17
60920;BME280;59039;52.108;19.942;2023-04-24T15:47:22;99216.32;;;20.75;36.06
60920;BME280;59039;52.108;19.942;2023-04-24T15:50:00;99211.02;;;20.75;36.00
60920;BME280;59039;52.108;19.942;2023-04-24T15:52:25;99211.86;;;20.76;35.85
60920;BME280;59039;52.108;19.942;2023-04-24T15:54:51;99213.56;;;20.78;35.47
60920;BME280;59039;52.108;19.942;2023-04-24T15:57:19;99209.04;;;20.78;35.32
60920;BME280;59039;52.108;19.942;2023-04-24T15:59:48;99210.26;;;20.79;35.46
60920;BME280;59039;52.108;19.942;2023-04-24T16:02:17;99209.94;;;20.80;35.64
60920;BME280;59039;52.108;19.942;2023-04-24T16:04:51;99208.71;;;20.79;35.02
60920;BME280;59039;52.108;19.942;2023-04-24T16:07:20;99207.44;;;20.79;35.17
60920;BME280;59039;52.108;19.942;2023-04-24T16:09:53;99208.81;;;20.79;35.30
60920;BME280;59039;52.108;19.942;2023-04-24T16:12:19;99206.45;;;20.78;35.43
60920;BME280;59039;52.108;19.942;2023-04-24T16:14:49;99205.14;;;20.80;34.10
60920;BME280;59039;52.108;19.942;2023-04-24T16:17:15;99202.98;;;20.76;34.08
60920;BME280;59039;52.108;19.942;2023-04-24T16:19:40;99204.45;;;20.75;34.51
60920;BME280;59039;52.108;19.942;2023-04-24T16:22:26;99202.06;;;20.75;34.12
60920;BME280;59039;52.108;19.942;2023-04-24T16:24:54;99200.08;;;20.71;34.04